Stanardsville, VA

3:15 AM EDT on September 01, 2015 (GMT -0400)
Little Edge Farm - 2.1 Miles WNW of | | Change Station
CLOSE
Current Station
Personal Weather Station
Location: Stanardsville, VA
Elevation: 783 ft
Nearby Weather Stations

Elev 783 ft 38.31 °N, 78.48 °W | Updated 2 seconds ago

Clear
Clear
64.7 °F
Feels Like 64.7 °F
N
0.0
Wind Variable Wind from NNW
Gusts 0.0 mph

Today
High -- | Low -- °F
--% Chance of Precip.
Yesterday
High -- | Low -- °F
Precip. -- in
6:43 AM 7:44 PM
Waning Gibbous, 91% visible
Pressure 30.04 in
Visibility 10.0 miles
Clouds Clear
Dew Point 63 °F
Humidity 95%
Rainfall 0.00 in
Snow Depth Not available.
UV 0 out of 12
Pollen 10.10 out of 12
Air Quality Not available.
Flu Activity Not available.
METAR KCHO 010653Z AUTO 26003KT 10SM CLR 20/18 A3007 RMK AO2 SLP173 T02000178
Pressure 30.04 in
Visibility 10.0 miles
Clouds Clear
Dew Point 63 °F
Humidity 95%
Rainfall 0.00 in
Snow Depth Not available.
UV 0 out of 12
Pollen 10.10 out of 12
Air Quality Not available.
Flu Activity Not available.
METAR KCHO 010653Z AUTO 26003KT 10SM CLR 20/18 A3007 RMK AO2 SLP173 T02000178

10-Day Weather Forecast

×

Almanac

Astronomy

Sep. 01, 2015 Rise Set
Actual Time
Civil Twilight
Nautical Twilight
Astronomical Twilight
Moon
Length of Visible Light
Length of Day
Tomorrow will be .
, % of the Moon is Illuminated

Today's Extremes

State Highs State Lows

Community

WunderPhotos

Upload Photos

1,851,488 photos uploaded!

WunderBlogs® & News

Nearby

Air Quality

  Air Quality AQ Index Pollutant
Not available.

Snow Depth

Station Depth Elevation

Earthquake Activity

City Distance Mag. Time & Date
Minimum magnitude displayed is 2.5.

Coastal Water Temperatures

Place Temperature

Stations

Nearby Weather Stations

Station Location Temp. Windchill Dew Point Humidity Wind Precip. Elev Updated Type